Time;durP1;ratioP1;P1;durP2;ratioP2;P2;SDS_P1;SDS_P2;PMS_P1;PMS_P2;Temp;Humidity;BMP_temperature;BMP_pressure;BME280_temperature;BME280_humidity;BME280_pressure;Samples;Min_cycle;Max_cycle;Signal;HPM_P1;HPM_P2
2021/12/25 00:00:14;;;;;;;83.05;24.08;;;12.80;99.90;;;;;;5002544;28;20034;-72
2021/12/25 00:02:41;;;;;;;75.32;22.73;;;12.80;99.90;;;;;;5005264;28;20040;-72
2021/12/25 00:05:07;;;;;;;81.25;25.05;;;12.80;99.90;;;;;;5001421;28;20183;-73
2021/12/25 00:07:33;;;;;;;71.82;24.67;;;12.70;99.90;;;;;;4998612;28;20027;-72
2021/12/25 00:10:00;;;;;;;80.30;24.85;;;12.70;99.90;;;;;;5002544;28;20030;-72
2021/12/25 00:12:26;;;;;;;76.50;24.00;;;12.70;99.90;;;;;;5001805;28;20233;-72
2021/12/25 00:14:52;;;;;;;77.38;26.75;;;12.70;99.90;;;;;;4999945;28;20029;-72
2021/12/25 00:17:18;;;;;;;73.78;24.27;;;12.70;99.90;;;;;;4996699;28;20030;-72
2021/12/25 00:19:44;;;;;;;70.32;23.20;;;12.70;99.90;;;;;;4999100;28;20141;-72
2021/12/25 00:22:10;;;;;;;66.43;23.75;;;12.80;99.90;;;;;;4998403;28;20244;-73
2021/12/25 00:24:41;;;;;;;72.20;24.50;;;12.80;99.90;;;;;;4996112;28;20491;-72
2021/12/25 00:27:23;;;;;;;85.80;25.85;;;12.80;99.90;;;;;;4999565;28;20068;-72
2021/12/25 00:30:07;;;;;;;69.20;23.75;;;12.80;99.90;;;;;;5002451;28;20569;-72
2021/12/25 00:32:55;;;;;;;86.95;24.20;;;12.80;99.90;;;;;;4999142;28;20083;-72
2021/12/25 00:35:21;;;;;;;78.35;22.73;;;12.80;99.90;;;;;;5007794;28;20060;-73
2021/12/25 00:37:47;;;;;;;76.53;23.17;;;12.80;99.90;;;;;;5005692;28;20034;-72
2021/12/25 00:40:13;;;;;;;72.88;23.98;;;12.80;99.90;;;;;;5009329;28;20054;-72
2021/12/25 00:42:39;;;;;;;70.90;23.95;;;12.80;99.90;;;;;;5007697;28;20483;-73
2021/12/25 00:45:05;;;;;;;62.88;22.80;;;12.80;99.90;;;;;;5005938;28;20037;-72
2021/12/25 00:47:31;;;;;;;57.95;22.75;;;12.80;99.90;;;;;;5012693;28;20053;-72
2021/12/25 00:49:57;;;;;;;58.47;22.63;;;12.80;99.90;;;;;;5015322;28;20387;-72
2021/12/25 00:52:22;;;;;;;55.60;21.60;;;12.80;99.90;;;;;;5009063;28;20022;-72
2021/12/25 00:54:48;;;;;;;50.63;20.60;;;12.80;99.90;;;;;;5008957;28;20085;-72
2021/12/25 00:57:14;;;;;;;57.13;22.00;;;12.80;99.90;;;;;;5012393;28;20026;-72
2021/12/25 00:59:40;;;;;;;55.50;21.05;;;12.80;99.90;;;;;;5014895;28;20045;-72
2021/12/25 01:02:05;;;;;;;61.78;21.15;;;12.80;99.90;;;;;;5013258;28;20069;-72
2021/12/25 01:04:31;;;;;;;64.15;20.58;;;12.80;99.90;;;;;;5013077;28;20076;-73
2021/12/25 01:06:57;;;;;;;53.00;20.85;;;12.80;99.90;;;;;;5008825;28;20037;-72
2021/12/25 01:09:23;;;;;;;55.55;23.15;;;12.80;99.90;;;;;;5012308;28;20036;-72
2021/12/25 01:11:50;;;;;;;59.72;21.48;;;12.80;99.90;;;;;;5014008;28;20026;-72
2021/12/25 01:14:38;;;;;;;69.38;24.17;;;12.80;99.90;;;;;;5012896;28;20023;-72
2021/12/25 01:17:20;;;;;;;70.45;25.63;;;12.80;99.90;;;;;;5013704;28;20026;-72
2021/12/25 01:30:58;;;;;;;86.50;29.00;;;12.90;99.90;;;;;;5005829;28;20030;-72
2021/12/25 01:36:32;;;;;;;88.55;29.83;;;13.00;99.90;;;;;;5009215;28;20022;-72
2021/12/25 01:49:30;;;;;;;82.15;29.85;;;13.00;99.90;;;;;;4990249;28;20044;-72
2021/12/25 01:51:56;;;;;;;99.38;29.90;;;13.00;99.90;;;;;;4989459;28;20439;-72
2021/12/25 01:54:22;;;;;;;91.22;29.67;;;13.00;99.90;;;;;;4990691;28;20080;-72
2021/12/25 01:56:48;;;;;;;97.53;30.48;;;13.00;99.90;;;;;;4990530;28;20110;-72
2021/12/25 01:59:15;;;;;;;95.13;30.52;;;13.00;99.90;;;;;;4990316;28;20029;-72
2021/12/25 02:01:40;;;;;;;96.32;33.03;;;13.00;99.90;;;;;;4989795;28;20073;-72
2021/12/25 02:04:06;;;;;;;110.93;35.50;;;13.00;99.90;;;;;;4987231;28;20058;-72
2021/12/25 02:06:32;;;;;;;117.88;34.92;;;13.00;99.90;;;;;;4990524;28;20034;-72
2021/12/25 02:08:58;;;;;;;117.50;36.30;;;13.00;99.90;;;;;;4990859;28;20484;-72
2021/12/25 02:11:25;;;;;;;119.38;37.00;;;13.00;99.90;;;;;;4990356;28;20026;-72
2021/12/25 02:13:50;;;;;;;111.80;36.75;;;13.00;99.90;;;;;;4990521;28;20070;-72
2021/12/25 02:16:17;;;;;;;126.13;36.63;;;13.00;99.90;;;;;;4989530;28;20495;-72
2021/12/25 02:19:10;;;;;;;113.38;36.22;;;13.00;99.90;;;;;;4990248;28;20523;-71
2021/12/25 02:21:40;;;;;;;125.30;37.88;;;13.00;99.90;;;;;;5003361;28;20112;-72
2021/12/25 02:24:08;;;;;;;124.40;38.45;;;13.00;99.90;;;;;;5011061;28;20025;-72
2021/12/25 02:26:37;;;;;;;130.77;37.78;;;13.00;99.90;;;;;;5013073;28;20379;-72
2021/12/25 02:29:03;;;;;;;116.90;37.13;;;13.00;99.90;;;;;;5014298;28;20434;-71
2021/12/25 02:31:29;;;;;;;128.35;37.45;;;13.00;99.90;;;;;;5011722;28;20029;-72
2021/12/25 02:33:55;;;;;;;122.68;36.78;;;13.00;99.90;;;;;;5009430;28;20080;-72
2021/12/25 02:36:20;;;;;;;117.93;36.85;;;13.00;99.90;;;;;;5012780;28;20029;-71
2021/12/25 02:38:47;;;;;;;124.10;36.85;;;13.00;99.90;;;;;;5010639;28;20022;-71
2021/12/25 02:41:13;;;;;;;129.60;39.50;;;13.00;99.90;;;;;;5011908;28;20280;-71
2021/12/25 02:43:42;;;;;;;137.15;39.08;;;13.00;99.90;;;;;;5006569;28;20017;-72
2021/12/25 02:46:08;;;;;;;136.85;39.17;;;13.00;99.90;;;;;;5000820;28;20038;-72
2021/12/25 02:48:38;;;;;;;150.43;40.72;;;13.00;99.90;;;;;;5008394;28;20092;-71
2021/12/25 02:51:05;;;;;;;121.25;38.92;;;13.00;99.90;;;;;;5009695;28;20037;-72
2021/12/25 02:53:30;;;;;;;126.18;39.10;;;13.00;99.90;;;;;;5011571;28;20030;-72
2021/12/25 02:55:56;;;;;;;108.13;37.50;;;13.00;99.90;;;;;;5006794;28;20048;-71
2021/12/25 02:58:23;;;;;;;137.95;40.72;;;13.00;99.90;;;;;;5003039;28;20026;-71
2021/12/25 03:01:12;;;;;;;123.43;39.67;;;13.00;99.90;;;;;;5001563;28;20035;-72
2021/12/25 03:03:38;;;;;;;127.20;38.85;;;12.90;99.90;;;;;;5007538;28;20080;-72
2021/12/25 03:06:05;;;;;;;121.05;37.90;;;12.90;99.90;;;;;;5008865;28;20026;-71
2021/12/25 03:08:31;;;;;;;109.10;38.00;;;12.90;99.90;;;;;;5005668;28;20034;-71
2021/12/25 03:10:58;;;;;;;126.85;37.92;;;12.90;99.90;;;;;;5008145;28;20017;-71
2021/12/25 03:13:45;;;;;;;128.07;39.70;;;12.90;99.90;;;;;;5007743;28;20045;-72
2021/12/25 03:16:12;;;;;;;113.35;36.67;;;12.90;99.90;;;;;;5012841;28;20022;-71
2021/12/25 03:18:46;;;;;;;123.82;36.95;;;12.90;99.90;;;;;;5016984;28;20040;-71
2021/12/25 03:21:13;;;;;;;133.38;39.40;;;12.90;99.90;;;;;;5016509;28;20095;-71
2021/12/25 03:23:39;;;;;;;132.57;39.58;;;12.90;99.90;;;;;;5016408;28;20037;-72
2021/12/25 03:26:06;;;;;;;118.32;36.75;;;12.90;99.90;;;;;;5017944;28;20036;-71
2021/12/25 03:28:34;;;;;;;136.40;39.85;;;12.90;99.90;;;;;;5016847;28;20029;-71
2021/12/25 03:31:04;;;;;;;127.45;38.30;;;12.90;99.90;;;;;;5014386;28;20521;-72
2021/12/25 03:33:32;;;;;;;104.68;35.63;;;12.90;99.90;;;;;;5015389;28;20072;-72
2021/12/25 03:35:58;;;;;;;130.38;36.97;;;12.90;99.90;;;;;;5016888;28;20486;-71
2021/12/25 03:38:26;;;;;;;103.75;37.25;;;12.90;99.90;;;;;;5016954;28;20038;-71
2021/12/25 03:40:53;;;;;;;110.75;37.00;;;12.90;99.90;;;;;;5017827;28;20528;-71
2021/12/25 03:43:20;;;;;;;86.90;33.22;;;12.90;99.90;;;;;;5014781;28;20542;-71
2021/12/25 03:45:46;;;;;;;83.25;31.50;;;12.90;99.90;;;;;;5015359;28;20448;-71
2021/12/25 03:58:53;;;;;;;101.60;33.47;;;12.90;99.90;;;;;;5012114;28;20040;-71
2021/12/25 04:04:07;;;;;;;88.38;30.65;;;12.90;99.90;;;;;;5007383;28;20062;-71
2021/12/25 04:06:35;;;;;;;90.00;31.88;;;12.90;99.90;;;;;;5013949;28;20034;-71
2021/12/25 04:09:09;;;;;;;76.05;31.83;;;12.90;99.90;;;;;;5013154;28;20075;-71
2021/12/25 04:11:35;;;;;;;79.88;30.13;;;12.90;99.90;;;;;;5008688;28;20033;-71
2021/12/25 04:14:01;;;;;;;74.28;29.25;;;12.90;99.90;;;;;;5010650;28;20113;-72
2021/12/25 04:16:27;;;;;;;72.35;29.05;;;12.90;99.90;;;;;;5014989;28;20530;-72
2021/12/25 04:18:54;;;;;;;71.40;28.27;;;12.90;99.90;;;;;;5015332;28;20502;-72
2021/12/25 04:21:20;;;;;;;57.60;27.70;;;12.90;99.90;;;;;;5015981;28;20030;-72
2021/12/25 04:23:46;;;;;;;71.03;27.45;;;12.90;99.90;;;;;;5016467;28;20034;-72
2021/12/25 04:26:13;;;;;;;65.82;28.52;;;12.90;99.90;;;;;;5008846;28;20038;-72
2021/12/25 04:28:58;;;;;;;63.30;28.35;;;13.00;99.90;;;;;;5017527;28;20053;-71
2021/12/25 04:32:00;;;;;;;74.03;28.92;;;13.00;99.90;;;;;;5013308;28;20042;-71
2021/12/25 05:01:47;;;;;;;69.88;28.67;;;13.00;99.90;;;;;;5014018;28;20107;-72
2021/12/25 05:04:23;;;;;;;66.40;27.17;;;13.00;99.90;;;;;;5010169;28;20498;-72
2021/12/25 05:06:49;;;;;;;62.88;28.27;;;13.00;99.90;;;;;;5011008;28;20098;-72
2021/12/25 05:09:15;;;;;;;71.18;28.00;;;13.00;99.90;;;;;;5015776;28;20029;-72
2021/12/25 05:11:42;;;;;;;77.15;28.33;;;13.00;99.90;;;;;;5012542;28;20037;-71
2021/12/25 05:14:08;;;;;;;73.50;28.50;;;13.00;99.90;;;;;;5010269;28;20467;-72
2021/12/25 05:16:33;;;;;;;72.53;31.38;;;13.00;99.90;;;;;;5006746;28;20122;-72
2021/12/25 05:18:59;;;;;;;69.53;30.02;;;13.00;99.90;;;;;;5004922;28;20105;-71
2021/12/25 05:21:25;;;;;;;75.13;29.98;;;13.00;99.90;;;;;;5007368;28;20479;-72
2021/12/25 05:23:51;;;;;;;74.50;29.85;;;13.00;99.90;;;;;;5011960;28;20022;-72
2021/12/25 05:26:17;;;;;;;75.90;31.60;;;13.00;99.90;;;;;;5012952;28;20036;-71
2021/12/25 05:28:45;;;;;;;90.40;33.97;;;13.00;99.90;;;;;;5015729;28;20026;-72
2021/12/25 05:31:14;;;;;;;98.43;34.88;;;13.00;99.90;;;;;;5012426;28;20451;-72
2021/12/25 05:33:41;;;;;;;92.93;34.60;;;13.00;99.90;;;;;;5013946;28;20038;-72
2021/12/25 05:36:07;;;;;;;87.43;32.63;;;13.00;99.90;;;;;;5015371;28;20053;-72
2021/12/25 05:38:34;;;;;;;85.85;35.10;;;13.00;99.90;;;;;;5012939;28;20572;-72
2021/12/25 05:41:01;;;;;;;92.28;34.75;;;12.90;99.90;;;;;;5016337;28;20045;-72
2021/12/25 05:43:27;;;;;;;93.68;34.75;;;13.00;99.90;;;;;;5012293;28;20026;-73
2021/12/25 05:45:53;;;;;;;95.97;33.83;;;12.90;99.90;;;;;;5007866;28;20511;-72
2021/12/25 05:48:19;;;;;;;95.93;34.70;;;12.90;99.90;;;;;;5011043;28;20064;-73
2021/12/25 05:50:45;;;;;;;98.65;34.80;;;13.00;99.90;;;;;;5012523;28;20037;-72
2021/12/25 05:53:11;;;;;;;97.93;36.38;;;13.00;99.90;;;;;;5013874;28;20022;-72
2021/12/25 05:55:37;;;;;;;95.50;34.88;;;13.00;99.90;;;;;;5011809;28;20071;-72
2021/12/25 05:58:03;;;;;;;87.93;35.05;;;13.00;99.90;;;;;;5011082;28;20026;-72
2021/12/25 06:00:31;;;;;;;96.63;34.78;;;13.00;99.90;;;;;;5013276;28;20125;-72
2021/12/25 06:02:58;;;;;;;91.18;34.08;;;13.00;99.90;;;;;;5012429;28;20073;-72
2021/12/25 06:05:24;;;;;;;94.22;33.40;;;13.00;99.90;;;;;;5013716;28;20033;-72
2021/12/25 06:07:50;;;;;;;92.68;33.42;;;13.00;99.90;;;;;;5013192;28;20075;-72
2021/12/25 06:10:16;;;;;;;93.80;34.33;;;13.00;99.90;;;;;;5012645;28;20014;-72
2021/12/25 06:12:44;;;;;;;92.85;35.47;;;13.00;99.90;;;;;;5012589;28;20505;-73
2021/12/25 06:15:12;;;;;;;85.05;33.20;;;13.10;99.90;;;;;;5011317;28;20026;-72
2021/12/25 06:17:38;;;;;;;91.10;34.00;;;13.00;99.90;;;;;;5013350;28;20503;-72
2021/12/25 06:20:06;;;;;;;87.20;32.75;;;13.10;99.90;;;;;;5013814;28;20041;-72
2021/12/25 06:22:32;;;;;;;101.82;32.75;;;13.00;99.90;;;;;;5013582;28;20053;-72
2021/12/25 06:24:58;;;;;;;99.22;34.55;;;13.10;99.90;;;;;;5011357;28;20484;-73
2021/12/25 06:27:24;;;;;;;99.25;31.73;;;13.10;99.90;;;;;;5006449;28;20026;-72
2021/12/25 06:29:50;;;;;;;84.40;32.72;;;13.10;99.90;;;;;;5010189;28;20026;-72
2021/12/25 06:32:17;;;;;;;91.10;32.15;;;13.10;99.90;;;;;;5008215;28;20487;-72
2021/12/25 06:34:43;;;;;;;93.55;31.98;;;13.10;99.90;;;;;;5005468;28;20072;-72
2021/12/25 06:37:09;;;;;;;94.15;34.10;;;13.10;99.90;;;;;;5003459;28;20038;-72
2021/12/25 06:39:35;;;;;;;90.15;34.60;;;13.10;99.90;;;;;;5007580;28;20048;-72
2021/12/25 06:42:02;;;;;;;94.32;32.47;;;13.20;99.90;;;;;;5009754;28;20045;-72
2021/12/25 06:44:29;;;;;;;94.00;32.55;;;13.10;99.90;;;;;;5010854;28;20121;-72
2021/12/25 06:46:55;;;;;;;103.47;33.97;;;13.20;99.90;;;;;;5009314;28;20100;-72
2021/12/25 06:49:22;;;;;;;95.72;32.88;;;13.10;99.90;;;;;;5005941;28;20383;-73
2021/12/25 06:51:49;;;;;;;110.70;33.85;;;13.10;99.90;;;;;;5012206;28;20117;-72
2021/12/25 06:54:16;;;;;;;106.22;34.80;;;13.10;99.90;;;;;;5012179;28;20077;-72
2021/12/25 06:56:46;;;;;;;102.40;34.92;;;13.10;99.90;;;;;;5014241;28;20164;-72
2021/12/25 06:59:12;;;;;;;108.70;37.20;;;13.10;99.90;;;;;;5011657;28;20064;-72
2021/12/25 07:01:39;;;;;;;102.72;35.40;;;13.10;99.90;;;;;;5008949;28;20056;-73
2021/12/25 07:04:06;;;;;;;102.65;34.65;;;13.20;99.90;;;;;;5007288;28;20036;-72
2021/12/25 07:06:33;;;;;;;101.90;35.08;;;13.10;99.90;;;;;;5009962;28;20034;-72
2021/12/25 07:08:59;;;;;;;102.88;34.33;;;13.10;99.90;;;;;;5014586;28;20499;-72
2021/12/25 07:11:25;;;;;;;97.28;33.17;;;13.10;99.90;;;;;;5013101;28;20487;-72
2021/12/25 07:13:51;;;;;;;103.97;34.90;;;13.10;99.90;;;;;;5009766;28;20029;-72
2021/12/25 07:16:18;;;;;;;103.82;34.85;;;13.00;99.90;;;;;;5006815;28;20030;-73
2021/12/25 07:18:44;;;;;;;96.63;34.10;;;13.00;99.90;;;;;;5009114;28;20038;-72
2021/12/25 07:21:10;;;;;;;106.13;33.30;;;13.00;99.90;;;;;;5013796;28;20042;-72
2021/12/25 07:23:36;;;;;;;95.18;32.90;;;13.00;99.90;;;;;;5014050;28;20033;-72
2021/12/25 07:26:02;;;;;;;105.03;34.88;;;13.00;99.90;;;;;;5009579;28;20054;-72
2021/12/25 07:28:31;;;;;;;91.72;33.85;;;13.00;99.90;;;;;;5008428;28;20021;-72
2021/12/25 07:31:00;;;;;;;83.43;32.05;;;13.00;99.90;;;;;;5006856;28;20222;-72
2021/12/25 07:33:26;;;;;;;93.63;32.88;;;13.00;99.90;;;;;;5013928;28;20088;-72
2021/12/25 07:35:52;;;;;;;90.38;34.13;;;13.00;99.90;;;;;;5015629;28;20026;-73
2021/12/25 07:38:18;;;;;;;98.72;32.13;;;13.00;99.90;;;;;;5011668;28;20033;-72
2021/12/25 07:40:45;;;;;;;94.72;32.72;;;13.00;99.90;;;;;;5009325;28;20076;-72
2021/12/25 07:43:10;;;;;;;98.95;31.08;;;13.00;99.90;;;;;;5010828;28;20438;-72
2021/12/25 07:45:36;;;;;;;84.22;32.20;;;13.00;99.90;;;;;;5013107;28;20097;-73
2021/12/25 07:48:03;;;;;;;63.70;25.98;;;13.00;99.90;;;;;;5012184;28;20057;-72
2021/12/25 07:50:34;;;;;;;62.03;24.42;;;13.00;99.90;;;;;;5013573;28;20038;-72
2021/12/25 07:53:01;;;;;;;42.10;20.52;;;12.90;99.90;;;;;;5015268;28;20025;-72
2021/12/25 07:55:30;;;;;;;35.63;17.13;;;12.90;99.90;;;;;;5010303;28;20026;-72
2021/12/25 07:57:56;;;;;;;31.50;16.52;;;12.80;99.90;;;;;;5009482;28;20537;-72
2021/12/25 08:00:22;;;;;;;26.98;12.27;;;12.80;99.90;;;;;;5011229;28;20041;-72
2021/12/25 08:02:48;;;;;;;17.20;9.55;;;12.70;99.90;;;;;;5008780;28;20379;-72
2021/12/25 08:05:14;;;;;;;15.13;7.97;;;12.60;99.90;;;;;;5010182;28;20037;-72
2021/12/25 08:07:40;;;;;;;11.77;6.07;;;12.60;99.90;;;;;;5017714;28;20452;-73
2021/12/25 08:10:16;;;;;;;13.18;6.82;;;12.60;99.90;;;;;;5013819;28;20018;-73
2021/12/25 08:12:49;;;;;;;10.25;6.90;;;12.50;99.90;;;;;;5010835;28;20518;-72
2021/12/25 08:15:17;;;;;;;8.23;4.15;;;12.40;99.90;;;;;;5010929;28;20069;-72
2021/12/25 08:17:43;;;;;;;8.52;4.30;;;12.40;99.90;;;;;;5013848;28;20033;-72
2021/12/25 08:20:10;;;;;;;6.03;3.60;;;12.40;99.90;;;;;;5013701;28;20039;-72
2021/12/25 08:22:37;;;;;;;7.05;3.42;;;12.30;99.90;;;;;;5008231;28;20025;-72
2021/12/25 08:25:04;;;;;;;5.72;2.70;;;12.30;99.90;;;;;;5002058;28;20509;-72
2021/12/25 08:27:31;;;;;;;4.97;2.90;;;12.30;99.90;;;;;;5007139;28;20027;-73
2021/12/25 08:30:00;;;;;;;7.20;2.45;;;12.30;99.90;;;;;;5010313;28;20403;-72
2021/12/25 08:32:26;;;;;;;5.82;2.00;;;12.30;99.90;;;;;;5007420;28;20617;-72
2021/12/25 08:34:52;;;;;;;5.65;2.50;;;12.30;99.90;;;;;;5008362;28;20030;-71
2021/12/25 08:37:23;;;;;;;3.83;1.80;;;12.40;99.90;;;;;;5009039;28;20029;-71
2021/12/25 08:39:50;;;;;;;4.13;1.90;;;12.40;99.90;;;;;;5007708;28;20491;-71
2021/12/25 08:42:16;;;;;;;5.30;2.20;;;12.50;99.90;;;;;;5009405;28;20414;-71
2021/12/25 08:45:04;;;;;;;4.80;2.38;;;12.50;99.90;;;;;;5009716;28;20502;-71
2021/12/25 08:47:30;;;;;;;4.78;2.80;;;12.50;99.90;;;;;;5011995;28;20507;-71
2021/12/25 08:49:56;;;;;;;4.60;2.70;;;12.50;99.90;;;;;;5006628;28;20159;-71
2021/12/25 08:52:24;;;;;;;4.63;2.17;;;12.60;99.90;;;;;;5007773;28;20104;-71
2021/12/25 08:54:51;;;;;;;3.63;1.95;;;12.50;99.90;;;;;;5007184;28;20026;-71
2021/12/25 08:57:20;;;;;;;4.93;2.30;;;12.50;99.90;;;;;;5011333;28;20033;-71
2021/12/25 08:59:46;;;;;;;5.65;2.08;;;12.50;99.90;;;;;;5011203;28;20390;-71
2021/12/25 09:02:15;;;;;;;4.93;2.45;;;12.60;99.90;;;;;;5014340;28;20027;-71
2021/12/25 09:04:43;;;;;;;6.47;3.00;;;12.60;99.90;;;;;;5015578;28;20029;-70
2021/12/25 09:07:09;;;;;;;5.43;2.50;;;12.70;99.90;;;;;;5009738;28;20057;-71
2021/12/25 09:09:36;;;;;;;5.20;2.58;;;12.70;99.90;;;;;;5012654;28;20453;-71
2021/12/25 09:12:04;;;;;;;6.22;2.80;;;12.70;99.90;;;;;;5010468;28;20407;-71
2021/12/25 09:14:29;;;;;;;5.00;2.47;;;12.70;99.90;;;;;;5010880;28;20527;-71
2021/12/25 09:16:55;;;;;;;5.93;2.10;;;12.70;99.90;;;;;;5016352;28;20143;-71
2021/12/25 09:19:21;;;;;;;5.18;1.95;;;12.80;99.90;;;;;;5008829;28;20022;-72
2021/12/25 09:21:47;;;;;;;4.78;1.83;;;12.80;99.90;;;;;;5011261;28;20033;-75
2021/12/25 09:24:15;;;;;;;4.55;2.10;;;12.90;99.90;;;;;;5012590;28;20414;-75
2021/12/25 09:26:41;;;;;;;4.10;1.73;;;12.90;99.90;;;;;;5011405;28;20030;-74
2021/12/25 09:29:07;;;;;;;3.88;1.92;;;13.00;99.90;;;;;;5014371;28;20095;-74
2021/12/25 09:31:33;;;;;;;4.93;2.38;;;13.10;99.90;;;;;;5014097;28;20037;-80
2021/12/25 09:33:59;;;;;;;5.68;2.55;;;13.10;99.90;;;;;;5009076;28;20034;-73
2021/12/25 09:36:27;;;;;;;7.28;3.40;;;13.20;99.90;;;;;;5010277;28;20067;-79
2021/12/25 09:38:54;;;;;;;7.40;4.60;;;13.30;99.90;;;;;;5015438;28;20095;-76
2021/12/25 09:41:19;;;;;;;9.70;5.10;;;13.30;99.90;;;;;;5004474;28;20117;-76
2021/12/25 09:43:48;;;;;;;10.32;4.82;;;13.30;99.90;;;;;;5011589;28;20184;-74
2021/12/25 09:46:15;;;;;;;6.85;3.10;;;13.40;99.90;;;;;;5001541;28;20038;-74
2021/12/25 09:48:40;;;;;;;7.28;4.32;;;13.40;99.90;;;;;;5010515;28;20034;-74
2021/12/25 09:51:06;;;;;;;7.93;4.95;;;13.40;99.90;;;;;;5011979;28;20112;-73
2021/12/25 09:53:32;;;;;;;9.35;4.65;;;13.50;99.90;;;;;;5004728;28;20022;-75
2021/12/25 09:55:59;;;;;;;6.43;3.50;;;13.50;99.90;;;;;;5013978;28;20059;-74
2021/12/25 09:58:25;;;;;;;6.22;3.28;;;13.60;99.90;;;;;;5001952;28;20100;-73
2021/12/25 10:00:51;;;;;;;8.52;3.47;;;13.70;99.90;;;;;;5000119;28;20177;-73
2021/12/25 10:03:18;;;;;;;6.93;4.30;;;13.80;99.90;;;;;;5009597;28;20026;-73
2021/12/25 10:05:47;;;;;;;7.38;3.88;;;13.80;99.90;;;;;;5004490;28;20029;-73
2021/12/25 10:08:25;;;;;;;6.47;3.38;;;13.90;99.90;;;;;;5004156;28;20421;-73
2021/12/25 10:10:54;;;;;;;8.32;4.50;;;14.10;99.90;;;;;;5009042;28;20123;-73
2021/12/25 10:13:21;;;;;;;9.68;5.25;;;14.20;99.90;;;;;;5010818;28;20071;-73
2021/12/25 10:15:49;;;;;;;8.57;5.40;;;14.30;99.90;;;;;;5011402;28;20022;-73
2021/12/25 10:18:17;;;;;;;10.50;6.03;;;14.50;99.90;;;;;;5011525;28;20491;-73
2021/12/25 10:20:43;;;;;;;8.25;4.38;;;14.60;99.90;;;;;;5010924;28;20384;-73
2021/12/25 10:23:11;;;;;;;9.05;3.88;;;14.70;99.90;;;;;;5013719;28;20022;-83
2021/12/25 10:25:51;;;;;;;8.27;4.88;;;14.80;99.90;;;;;;5014408;28;20033;-76
2021/12/25 10:28:27;;;;;;;7.65;4.15;;;14.80;99.90;;;;;;5003810;28;20189;-76
2021/12/25 10:31:06;;;;;;;15.88;5.22;;;14.80;99.90;;;;;;5005914;28;20399;-77
2021/12/25 10:33:41;;;;;;;9.60;5.13;;;14.80;99.90;;;;;;5002456;28;20061;-79
2021/12/25 10:36:31;;;;;;;10.10;4.80;;;14.80;99.90;;;;;;5001410;28;20048;-80
2021/12/25 10:39:08;;;;;;;9.48;4.75;;;14.80;99.90;;;;;;5003903;28;20517;-79
2021/12/25 10:41:38;;;;;;;9.93;5.32;;;14.70;99.90;;;;;;5002710;28;20038;-76
2021/12/25 10:44:17;;;;;;;11.65;6.95;;;14.70;99.90;;;;;;5005064;28;20022;-76
2021/12/25 10:46:59;;;;;;;17.30;8.82;;;14.70;99.90;;;;;;4999316;28;20076;-74
2021/12/25 10:49:38;;;;;;;15.40;8.18;;;14.70;99.90;;;;;;4999221;28;20507;-74
2021/12/25 10:52:32;;;;;;;15.63;7.45;;;14.70;99.90;;;;;;5002567;28;20484;-73
2021/12/25 10:55:14;;;;;;;13.75;7.80;;;14.70;99.90;;;;;;5006648;28;20128;-73
2021/12/25 10:57:44;;;;;;;13.57;7.07;;;14.70;99.90;;;;;;4999214;28;20110;-73
2021/12/25 11:00:13;;;;;;;13.80;7.75;;;14.70;99.90;;;;;;5003070;28;20034;-74
2021/12/25 11:02:39;;;;;;;14.82;8.60;;;14.80;99.90;;;;;;5005035;28;20450;-74
2021/12/25 11:05:21;;;;;;;16.05;9.00;;;14.90;99.90;;;;;;5006808;28;20021;-74
2021/12/25 11:08:08;;;;;;;16.70;9.85;;;15.00;99.90;;;;;;4998366;28;20057;-79
2021/12/25 11:10:54;;;;;;;13.00;6.95;;;15.10;99.90;;;;;;4997760;28;20507;-74
2021/12/25 11:13:20;;;;;;;10.80;6.35;;;15.30;99.90;;;;;;4999526;28;20363;-73
2021/12/25 11:15:46;;;;;;;12.07;6.75;;;15.50;99.90;;;;;;5000685;28;20042;-73
2021/12/25 11:18:14;;;;;;;10.93;6.32;;;15.70;99.90;;;;;;5001374;28;20400;-73
2021/12/25 11:20:41;;;;;;;10.68;5.80;;;15.90;99.90;;;;;;4997224;28;20048;-73
2021/12/25 11:23:10;;;;;;;11.50;5.55;;;16.30;99.90;;;;;;4996893;28;20022;-73
2021/12/25 11:25:38;;;;;;;11.88;5.32;;;16.60;99.90;;;;;;4997126;28;20062;-75
2021/12/25 11:28:10;;;;;;;6.30;3.08;;;16.90;99.90;;;;;;5015516;28;20462;-73
2021/12/25 11:30:40;;;;;;;10.65;2.95;;;17.10;99.90;;;;;;5003321;28;20384;-73
2021/12/25 11:33:06;;;;;;;7.25;3.55;;;17.20;99.90;;;;;;5005611;28;20119;-72
2021/12/25 11:35:35;;;;;;;7.70;3.83;;;17.10;99.90;;;;;;5007787;28;20034;-73
2021/12/25 11:38:05;;;;;;;8.15;4.60;;;17.00;99.90;;;;;;5002490;28;20026;-73
2021/12/25 11:40:36;;;;;;;7.50;3.85;;;17.00;99.90;;;;;;5002041;28;20103;-73
2021/12/25 11:43:04;;;;;;;7.13;4.00;;;17.00;99.90;;;;;;5005346;28;20026;-72
2021/12/25 11:45:41;;;;;;;6.78;4.40;;;17.20;99.90;;;;;;5000273;28;20042;-73
2021/12/25 11:48:19;;;;;;;6.80;3.80;;;17.40;99.90;;;;;;5001839;28;20085;-73
2021/12/25 11:50:51;;;;;;;9.05;3.60;;;17.60;99.90;;;;;;4996438;28;20514;-74
2021/12/25 11:53:38;;;;;;;9.30;5.57;;;17.80;99.90;;;;;;5005042;28;20033;-73
2021/12/25 11:56:26;;;;;;;6.13;3.50;;;18.10;99.90;;;;;;5003724;28;20042;-73
2021/12/25 11:58:57;;;;;;;9.10;4.30;;;18.40;99.90;;;;;;5006227;28;20026;-74
2021/12/25 12:01:42;;;;;;;6.35;3.28;;;18.50;99.90;;;;;;5002578;28;20030;-74
2021/12/25 12:04:11;;;;;;;7.22;3.55;;;18.70;99.90;;;;;;4998433;28;20022;-73
2021/12/25 12:06:48;;;;;;;8.20;4.05;;;18.20;99.90;;;;;;5001887;28;20030;-73
2021/12/25 12:09:24;;;;;;;6.55;3.15;;;17.70;99.90;;;;;;5001635;28;20026;-72
2021/12/25 12:12:12;;;;;;;7.82;3.78;;;17.30;99.90;;;;;;4999817;28;20034;-73
2021/12/25 12:14:38;;;;;;;8.68;4.07;;;17.10;99.90;;;;;;5006944;28;20030;-72
2021/12/25 12:17:07;;;;;;;8.40;4.47;;;17.00;99.90;;;;;;5004938;28;20026;-72
2021/12/25 12:19:36;;;;;;;6.70;3.95;;;17.20;99.90;;;;;;5010199;28;20156;-72
2021/12/25 12:22:08;;;;;;;8.38;2.95;;;17.60;99.90;;;;;;5011206;28;20042;-73
2021/12/25 12:25:02;;;;;;;10.30;6.47;;;18.20;99.90;;;;;;5010538;28;20031;-73
2021/12/25 12:27:38;;;;;;;7.70;4.60;;;18.60;99.90;;;;;;5007388;28;20092;-74
2021/12/25 12:30:06;;;;;;;7.03;4.00;;;18.60;99.90;;;;;;5006357;28;20038;-73
2021/12/25 12:32:35;;;;;;;5.57;3.35;;;18.40;99.90;;;;;;5009010;28;20068;-72
2021/12/25 12:35:04;;;;;;;6.78;3.00;;;18.20;99.90;;;;;;5006840;28;20440;-74
2021/12/25 12:37:33;;;;;;;5.88;3.15;;;18.00;99.90;;;;;;5004133;28;20026;-75
2021/12/25 12:40:06;;;;;;;6.45;2.55;;;17.80;99.90;;;;;;5012126;28;20123;-74
2021/12/25 12:42:44;;;;;;;7.20;3.67;;;17.60;99.90;;;;;;5010174;28;20506;-77
2021/12/25 12:45:20;;;;;;;6.00;4.20;;;17.30;99.90;;;;;;5011197;28;20026;-77
2021/12/25 12:48:17;;;;;;;7.13;3.70;;;17.00;99.90;;;;;;5005885;28;20066;-82
2021/12/25 12:50:49;;;;;;;7.65;3.63;;;16.70;99.90;;;;;;5012070;28;20528;-80
2021/12/25 12:53:16;;;;;;;6.13;3.65;;;16.40;99.90;;;;;;5013923;28;21095;-76
2021/12/25 12:55:44;;;;;;;7.65;3.55;;;16.20;99.90;;;;;;5014671;28;20030;-74
2021/12/25 12:58:20;;;;;;;8.82;4.72;;;16.10;99.90;;;;;;5007721;28;20022;-75
2021/12/25 13:01:02;;;;;;;10.50;5.18;;;15.90;99.90;;;;;;5010562;28;20042;-75
2021/12/25 13:03:29;;;;;;;7.22;3.80;;;15.80;99.90;;;;;;5012107;28;20422;-75
2021/12/25 13:06:02;;;;;;;7.50;3.42;;;15.70;99.90;;;;;;5016134;28;20037;-74
2021/12/25 13:08:31;;;;;;;6.53;3.58;;;15.70;99.90;;;;;;5015678;28;20030;-75
2021/12/25 13:11:08;;;;;;;6.70;3.97;;;15.60;99.90;;;;;;5015615;28;20516;-74
2021/12/25 13:13:40;;;;;;;6.93;3.88;;;15.60;99.90;;;;;;5014809;28;20033;-75
2021/12/25 13:16:11;;;;;;;7.45;4.35;;;15.60;99.90;;;;;;5012832;28;20026;-74
2021/12/25 13:18:49;;;;;;;11.60;6.53;;;15.50;99.90;;;;;;5013552;28;20076;-76
2021/12/25 13:21:22;;;;;;;10.55;5.70;;;15.50;99.90;;;;;;5013230;28;20120;-73
2021/12/25 13:23:54;;;;;;;10.48;5.82;;;15.60;99.90;;;;;;5009413;28;20030;-81
2021/12/25 13:26:35;;;;;;;11.57;6.57;;;15.70;99.90;;;;;;5009668;28;20415;-77
2021/12/25 13:29:04;;;;;;;10.13;5.72;;;16.00;99.90;;;;;;5007396;28;20022;-76
2021/12/25 13:43:37;;;;;;;8.85;5.30;;;16.40;99.90;;;;;;5094820;27;1481510;-73
2021/12/25 13:46:03;;;;;;;7.90;4.25;;;16.20;99.90;;;;;;5110980;28;20361;-72
2021/12/25 13:48:39;;;;;;;7.75;4.07;;;16.10;99.90;;;;;;5127712;28;20034;-73
2021/12/25 13:51:06;;;;;;;6.97;4.20;;;16.00;99.90;;;;;;5124917;28;20349;-71
2021/12/25 13:53:32;;;;;;;6.30;3.58;;;15.90;99.90;;;;;;5071419;22;20056;-75
2021/12/25 13:56:07;;;;;;;8.07;3.95;;;15.80;99.90;;;;;;5050814;28;20142;-74
2021/12/25 13:58:33;;;;;;;9.82;4.82;;;15.70;99.90;;;;;;5040437;28;20120;-74
2021/12/25 14:00:59;;;;;;;5.63;3.15;;;15.70;99.90;;;;;;5033450;28;20096;-77